EDT,Max TemperatureF,Mean TemperatureF,Min TemperatureF,Max Dew PointF,MeanDew PointF,Min DewpointF,Max Humidity, Mean Humidity, Min Humidity, Max Sea Level PressureIn, Mean Sea Level PressureIn, Min Sea Level PressureIn, Max VisibilityMiles, Mean VisibilityMiles, Min VisibilityMiles, Max Wind SpeedMPH, Mean Wind SpeedMPH, Max Gust SpeedMPH,PrecipitationIn, CloudCover, Events, WindDirDegrees
2012-9-1,93,83,73,75,71,68,88,75,49,30.15,30.11,30.04,10,10,10,16,5,,0.00,1,,238
2012-9-2,91,83,75,73,72,70,83,72,49,30.06,30.02,29.95,10,10,10,17,7,,0.00,1,,235
2012-9-3,87,81,75,73,70,66,83,70,58,30.06,30.01,29.98,20,10,10,18,8,23,0.00,1,,220
2012-9-4,84,80,75,70,68,54,73,63,35,30.04,30.00,29.95,10,10,10,15,10,21,0.00,2,,189
2012-9-5,87,82,77,72,70,68,78,68,58,29.99,29.95,29.91,10,10,10,18,10,23,0.00,1,,204
2012-9-6,87,82,77,73,71,70,78,71,55,29.99,29.95,29.90,10,10,10,20,7,,0.00,1,,216
2012-9-7,84,78,73,73,70,68,83,74,62,29.97,29.92,29.87,10,10,10,13,6,,0.00,4,Thunderstorm,229
2012-9-8,87,80,73,73,70,66,83,75,62,29.89,29.83,29.76,10,9,2,17,5,23,0.03,2,Rain,214
2012-9-9,80,74,68,68,64,55,83,70,54,29.97,29.84,29.77,10,10,8,14,4,17,0.01,5,,341
2012-9-10,80,70,60,57,53,48,77,63,32,30.15,30.03,29.96,10,10,10,15,5,,0.00,0,,352
2012-9-11,80,70,60,64,52,46,73,59,32,30.28,30.20,30.14,15,10,10,15,7,18,0.09,0,,26
2012-9-12,78,68,59,61,52,46,78,62,42,30.32,30.27,30.25,10,10,10,13,6,,0.00,0,,11
2012-9-13,82,72,62,63,60,55,78,69,51,30.29,30.24,30.20,10,10,10,16,9,18,0.00,1,,33
2012-9-14,82,74,66,66,63,59,83,75,51,30.22,30.17,30.12,10,10,6,12,7,,0.00,2,,24
2012-9-15,82,74,66,70,64,61,88,76,61,30.16,30.12,30.09,10,10,9,14,3,,0.00,1,,28
2012-9-16,82,74,66,70,64,61,83,73,57,30.14,30.10,30.05,10,10,10,14,4,,0.00,2,,51
2012-9-17,82,75,68,70,66,63,83,74,66,30.08,30.04,29.97,10,10,10,16,3,23,0.00,2,,167
2012-9-18,84,80,73,73,69,64,78,71,65,29.97,29.87,29.77,10,9,1,22,16,30,0.00,5,Rain-Thunderstorm,194
2012-9-19,78,71,64,68,63,55,83,75,64,30.09,29.94,29.85,10,10,7,16,6,17,5.82,4,,339
2012-9-20,75,70,64,63,57,55,77,70,60,30.15,30.09,30.05,10,10,10,12,9,,0.00,4,,14
2012-9-21,78,69,60,61,57,52,78,68,47,30.10,30.06,30.03,10,10,10,12,5,,0.05,0,,31
2012-9-22,82,73,64,66,59,55,77,69,54,30.05,30.02,29.97,10,10,10,17,4,17,0.05,0,,212
2012-9-23,80,70,60,63,57,46,78,62,36,30.10,30.03,29.98,19,10,5,22,7,,0.00,0,,311
2012-9-24,75,66,57,52,47,45,72,55,34,30.19,30.13,30.08,10,10,10,16,9,17,0.00,0,,23
2012-9-25,77,65,53,57,49,45,72,63,34,30.24,30.20,30.17,10,10,10,13,3,,0.00,0,,93
2012-9-26,80,68,57,63,56,50,82,68,51,30.24,30.19,30.17,10,10,10,12,4,,0.00,0,,115
2012-9-27,82,70,57,63,58,52,82,69,45,30.22,30.16,30.11,10,8,1,12,3,,0.00,0,,137
2012-9-28,84,74,64,66,61,55,78,69,51,30.12,30.08,30.01,10,10,6,14,4,,0.00,1,,216
2012-9-29,82,76,69,66,64,61,83,72,54,30.02,29.96,29.87,10,10,5,12,3,,0.00,2,,242
2012-9-30,71,68,64,63,61,57,88,78,69,29.92,29.87,29.86,10,9,3,12,5,,0.00,5,,10